LRI1070 LFMN-LSZA
Flight info
| Callsign | LRI1070 |
|---|---|
| Flight time | 0h 33m |
| Altitude | 24000 |
| Route | BASIP DCT EGHIN DCT ANAKI DCT DEVOX DCT KEMMI DCT VOG |
| Aircraft | B737/M-SDE2E3FGHIRWXY/LB1 |
Departure
| Time | 2026-05-05 12:15 |
|---|---|
| Airport | Nice-Côte d'Azur Airport (LFMN) |
Arrival
| Time | 2026-05-05 12:48 |
|---|---|
| Airport | Lugano Airport (LSZA) |
| Time | Latitude | Longitude | Altitude | Speed | Heading |
|---|---|---|---|---|---|
| 2026-05-05 11:56 | 43.66366 | 7.20740 | 20 ft | 0 kts | 351° |
| 2026-05-05 12:06 | 43.66343 | 7.20747 | 22 ft | 4 kts | 343° |
| 2026-05-05 12:07 | 43.66319 | 7.20761 | 22 ft | 4 kts | 322° |
| 2026-05-05 12:07 | 43.66306 | 7.20787 | 20 ft | 3 kts | 264° |
| 2026-05-05 12:07 | 43.66307 | 7.20797 | 22 ft | 0 kts | 261° |
| 2026-05-05 12:09 | 43.66299 | 7.20775 | 21 ft | 8 kts | 235° |
| 2026-05-05 12:10 | 43.66244 | 7.20758 | 20 ft | 8 kts | 175° |
| 2026-05-05 12:10 | 43.66188 | 7.20772 | 20 ft | 8 kts | 167° |
| 2026-05-05 12:10 | 43.66134 | 7.20788 | 20 ft | 8 kts | 169° |
| 2026-05-05 12:10 | 43.66075 | 7.20802 | 20 ft | 10 kts | 171° |
| 2026-05-05 12:11 | 43.65997 | 7.20819 | 23 ft | 13 kts | 171° |
| 2026-05-05 12:11 | 43.65895 | 7.20842 | 20 ft | 17 kts | 171° |
| 2026-05-05 12:11 | 43.65770 | 7.20871 | 21 ft | 20 kts | 171° |
| 2026-05-05 12:11 | 43.65629 | 7.20900 | 20 ft | 21 kts | 171° |
| 2026-05-05 12:12 | 43.65489 | 7.20933 | 20 ft | 20 kts | 170° |
| 2026-05-05 12:12 | 43.65354 | 7.20947 | 20 ft | 19 kts | 201° |
| 2026-05-05 12:12 | 43.65254 | 7.20826 | 20 ft | 19 kts | 224° |
| 2026-05-05 12:12 | 43.65162 | 7.20701 | 20 ft | 18 kts | 225° |
| 2026-05-05 12:13 | 43.65076 | 7.20577 | 20 ft | 18 kts | 226° |
| 2026-05-05 12:13 | 43.64991 | 7.20459 | 21 ft | 17 kts | 224° |
| 2026-05-05 12:13 | 43.64909 | 7.20349 | 21 ft | 16 kts | 224° |
| 2026-05-05 12:13 | 43.64828 | 7.20240 | 20 ft | 16 kts | 225° |
| 2026-05-05 12:14 | 43.64740 | 7.20181 | 21 ft | 15 kts | 162° |
| 2026-05-05 12:14 | 43.64708 | 7.20291 | 24 ft | 14 kts | 54° |
| 2026-05-05 12:14 | 43.64880 | 7.20540 | 25 ft | 67 kts | 45° |
| 2026-05-05 12:14 | 43.65369 | 7.21206 | 22 ft | 127 kts | 45° |
| 2026-05-05 12:15 | 43.66085 | 7.22191 | 239 ft | 153 kts | 47° |
| 2026-05-05 12:15 | 43.66830 | 7.23272 | 768 ft | 158 kts | 60° |
| 2026-05-05 12:15 | 43.67081 | 7.24739 | 1341 ft | 161 kts | 93° |
| 2026-05-05 12:15 | 43.66807 | 7.26253 | 1919 ft | 168 kts | 127° |
| 2026-05-05 12:16 | 43.66036 | 7.27448 | 2680 ft | 167 kts | 133° |
| 2026-05-05 12:16 | 43.65251 | 7.28677 | 3359 ft | 176 kts | 134° |
| 2026-05-05 12:16 | 43.64361 | 7.30057 | 3664 ft | 208 kts | 134° |
| 2026-05-05 12:16 | 43.63509 | 7.31767 | 4135 ft | 225 kts | 109° |
| 2026-05-05 12:17 | 43.63449 | 7.33950 | 4823 ft | 235 kts | 77° |
| 2026-05-05 12:17 | 43.63945 | 7.36097 | 5662 ft | 237 kts | 70° |
| 2026-05-05 12:17 | 43.64549 | 7.38250 | 6421 ft | 244 kts | 69° |
| 2026-05-05 12:17 | 43.65171 | 7.40454 | 7227 ft | 248 kts | 69° |
| 2026-05-05 12:18 | 43.65789 | 7.42697 | 8074 ft | 252 kts | 70° |
| 2026-05-05 12:18 | 43.66407 | 7.44973 | 8941 ft | 256 kts | 70° |
| 2026-05-05 12:18 | 43.67034 | 7.47303 | 9693 ft | 261 kts | 70° |
| 2026-05-05 12:18 | 43.67673 | 7.49688 | 10398 ft | 271 kts | 70° |
| 2026-05-05 12:19 | 43.68357 | 7.52257 | 10693 ft | 300 kts | 71° |
| 2026-05-05 12:19 | 43.69113 | 7.55105 | 10928 ft | 330 kts | 71° |
| 2026-05-05 12:19 | 43.69934 | 7.58202 | 11216 ft | 355 kts | 71° |
| 2026-05-05 12:19 | 43.70797 | 7.61453 | 11891 ft | 365 kts | 71° |
| 2026-05-05 12:20 | 43.71677 | 7.64770 | 12749 ft | 370 kts | 71° |
| 2026-05-05 12:20 | 43.72567 | 7.68135 | 13629 ft | 376 kts | 72° |
| 2026-05-05 12:20 | 43.73559 | 7.71463 | 14387 ft | 384 kts | 61° |
| 2026-05-05 12:20 | 43.75208 | 7.74396 | 15213 ft | 389 kts | 48° |
| 2026-05-05 12:21 | 43.77046 | 7.77166 | 16046 ft | 394 kts | 48° |
| 2026-05-05 12:21 | 43.78913 | 7.79985 | 16842 ft | 400 kts | 48° |
| 2026-05-05 12:21 | 43.80777 | 7.82876 | 17645 ft | 405 kts | 49° |
| 2026-05-05 12:21 | 43.82649 | 7.85829 | 18424 ft | 411 kts | 50° |
| 2026-05-05 12:22 | 43.84544 | 7.88831 | 19109 ft | 417 kts | 49° |
| 2026-05-05 12:22 | 43.86466 | 7.91873 | 19804 ft | 422 kts | 49° |
| 2026-05-05 12:22 | 43.88414 | 7.94954 | 20466 ft | 428 kts | 49° |
| 2026-05-05 12:22 | 43.90391 | 7.98076 | 21152 ft | 432 kts | 48° |
| 2026-05-05 12:23 | 43.92394 | 8.01229 | 21810 ft | 438 kts | 48° |
| 2026-05-05 12:23 | 43.94422 | 8.04422 | 22451 ft | 444 kts | 47° |
| 2026-05-05 12:23 | 43.96469 | 8.07647 | 23146 ft | 447 kts | 47° |
| 2026-05-05 12:23 | 43.98527 | 8.10896 | 23770 ft | 449 kts | 47° |
| 2026-05-05 12:24 | 44.00586 | 8.14152 | 23961 ft | 446 kts | 47° |
| 2026-05-05 12:24 | 44.02636 | 8.17396 | 23956 ft | 446 kts | 47° |
| 2026-05-05 12:24 | 44.04623 | 8.20694 | 23949 ft | 445 kts | 53° |
| 2026-05-05 12:24 | 44.06282 | 8.24328 | 23969 ft | 446 kts | 63° |
| 2026-05-05 12:25 | 44.07516 | 8.28221 | 23975 ft | 445 kts | 69° |
| 2026-05-05 12:25 | 44.08647 | 8.32230 | 23969 ft | 446 kts | 70° |
| 2026-05-05 12:25 | 44.09759 | 8.36256 | 23967 ft | 446 kts | 70° |
| 2026-05-05 12:25 | 44.10878 | 8.40275 | 23969 ft | 445 kts | 69° |
| 2026-05-05 12:26 | 44.12009 | 8.44284 | 23969 ft | 445 kts | 69° |
| 2026-05-05 12:26 | 44.13151 | 8.48284 | 23971 ft | 445 kts | 69° |
| 2026-05-05 12:26 | 44.14300 | 8.52288 | 23966 ft | 444 kts | 69° |
| 2026-05-05 12:26 | 44.15448 | 8.56289 | 23969 ft | 444 kts | 69° |
| 2026-05-05 12:27 | 44.16590 | 8.60277 | 23968 ft | 443 kts | 69° |
| 2026-05-05 12:27 | 44.17735 | 8.64263 | 23968 ft | 443 kts | 67° |
| 2026-05-05 12:27 | 44.19334 | 8.67912 | 23966 ft | 441 kts | 47° |
| 2026-05-05 12:27 | 44.21642 | 8.70674 | 23974 ft | 436 kts | 28° |
| 2026-05-05 12:28 | 44.24330 | 8.72418 | 23974 ft | 429 kts | 13° |
| 2026-05-05 12:28 | 44.27239 | 8.73102 | 23977 ft | 420 kts | 358° |
| 2026-05-05 12:28 | 44.30155 | 8.73253 | 23979 ft | 420 kts | 356° |
| 2026-05-05 12:28 | 44.33080 | 8.73317 | 23972 ft | 421 kts | 355° |
| 2026-05-05 12:29 | 44.36018 | 8.73370 | 23964 ft | 422 kts | 355° |
| 2026-05-05 12:29 | 44.38956 | 8.73442 | 23963 ft | 423 kts | 356° |
| 2026-05-05 12:29 | 44.41915 | 8.73537 | 23965 ft | 423 kts | 356° |
| 2026-05-05 12:29 | 44.44832 | 8.73647 | 23976 ft | 424 kts | 356° |
| 2026-05-05 12:30 | 44.47783 | 8.73768 | 23979 ft | 424 kts | 356° |
| 2026-05-05 12:30 | 44.50734 | 8.73893 | 23971 ft | 425 kts | 356° |
| 2026-05-05 12:30 | 44.53689 | 8.74021 | 23971 ft | 425 kts | 356° |
| 2026-05-05 12:30 | 44.56643 | 8.74149 | 23962 ft | 425 kts | 356° |
| 2026-05-05 12:31 | 44.59600 | 8.74275 | 23979 ft | 424 kts | 356° |
| 2026-05-05 12:31 | 44.62548 | 8.74400 | 23977 ft | 424 kts | 356° |
| 2026-05-05 12:31 | 44.65494 | 8.74527 | 23972 ft | 424 kts | 358° |
| 2026-05-05 12:31 | 44.68442 | 8.75052 | 23969 ft | 430 kts | 8° |
| 2026-05-05 12:32 | 44.71315 | 8.76260 | 23976 ft | 434 kts | 18° |
| 2026-05-05 12:32 | 44.74044 | 8.78148 | 23982 ft | 437 kts | 27° |
| 2026-05-05 12:32 | 44.76652 | 8.80357 | 23986 ft | 437 kts | 29° |
| 2026-05-05 12:32 | 44.79238 | 8.82585 | 23981 ft | 433 kts | 28° |
| 2026-05-05 12:33 | 44.81801 | 8.84759 | 23982 ft | 427 kts | 28° |
| 2026-05-05 12:33 | 44.84353 | 8.86891 | 23984 ft | 426 kts | 28° |
| 2026-05-05 12:33 | 44.86874 | 8.88984 | 23997 ft | 427 kts | 28° |
| 2026-05-05 12:33 | 44.89442 | 8.91115 | 23827 ft | 430 kts | 28° |
| 2026-05-05 12:34 | 44.92018 | 8.93258 | 23345 ft | 430 kts | 28° |
| 2026-05-05 12:34 | 44.94644 | 8.95236 | 22765 ft | 423 kts | 17° |
| 2026-05-05 12:34 | 44.97471 | 8.96109 | 22254 ft | 409 kts | 360° |
| 2026-05-05 12:34 | 45.00257 | 8.95861 | 21677 ft | 396 kts | 343° |
| 2026-05-05 12:35 | 45.02922 | 8.95003 | 21153 ft | 391 kts | 341° |
| 2026-05-05 12:35 | 45.05547 | 8.94063 | 20613 ft | 387 kts | 340° |
| 2026-05-05 12:35 | 45.08142 | 8.93113 | 20085 ft | 384 kts | 340° |
| 2026-05-05 12:35 | 45.10719 | 8.92175 | 19569 ft | 381 kts | 340° |
| 2026-05-05 12:36 | 45.13284 | 8.91256 | 19048 ft | 379 kts | 340° |
| 2026-05-05 12:36 | 45.15836 | 8.90354 | 18509 ft | 377 kts | 341° |
| 2026-05-05 12:36 | 45.18379 | 8.89463 | 17944 ft | 375 kts | 341° |
| 2026-05-05 12:36 | 45.20058 | 8.88878 | 17581 ft | 373 kts | 341° |
| 2026-05-05 12:37 | 45.22571 | 8.88004 | 17021 ft | 370 kts | 341° |
| 2026-05-05 12:37 | 45.25060 | 8.87139 | 16492 ft | 367 kts | 341° |
| 2026-05-05 12:37 | 45.27530 | 8.86281 | 16008 ft | 364 kts | 341° |
| 2026-05-05 12:37 | 45.30767 | 8.85155 | 15327 ft | 359 kts | 342° |
| 2026-05-05 12:38 | 45.33186 | 8.84313 | 14827 ft | 357 kts | 342° |
| 2026-05-05 12:38 | 45.34812 | 8.83746 | 14489 ft | 355 kts | 342° |
| 2026-05-05 12:38 | 45.37200 | 8.82912 | 13981 ft | 352 kts | 342° |
| 2026-05-05 12:38 | 45.39551 | 8.82091 | 13429 ft | 351 kts | 342° |
| 2026-05-05 12:39 | 45.41912 | 8.81266 | 12878 ft | 348 kts | 342° |
| 2026-05-05 12:39 | 45.44257 | 8.80446 | 12312 ft | 345 kts | 342° |
| 2026-05-05 12:39 | 45.46577 | 8.79634 | 11803 ft | 343 kts | 343° |
| 2026-05-05 12:39 | 45.48887 | 8.78824 | 11287 ft | 341 kts | 343° |
| 2026-05-05 12:40 | 45.51187 | 8.78017 | 10780 ft | 339 kts | 343° |
| 2026-05-05 12:40 | 45.53470 | 8.77215 | 10351 ft | 336 kts | 343° |
| 2026-05-05 12:40 | 45.55687 | 8.76439 | 10214 ft | 321 kts | 343° |
| 2026-05-05 12:40 | 45.57818 | 8.75692 | 10065 ft | 309 kts | 343° |
| 2026-05-05 12:41 | 45.59868 | 8.74971 | 9960 ft | 296 kts | 343° |
| 2026-05-05 12:41 | 45.61846 | 8.74275 | 9499 ft | 297 kts | 343° |
| 2026-05-05 12:41 | 45.63866 | 8.73750 | 9102 ft | 297 kts | 359° |
| 2026-05-05 12:41 | 45.65887 | 8.74267 | 8756 ft | 294 kts | 17° |
| 2026-05-05 12:42 | 45.67792 | 8.75173 | 8510 ft | 289 kts | 19° |
| 2026-05-05 12:42 | 45.69682 | 8.76125 | 8369 ft | 280 kts | 20° |
| 2026-05-05 12:42 | 45.71468 | 8.77027 | 8234 ft | 271 kts | 20° |
| 2026-05-05 12:42 | 45.73222 | 8.77905 | 8123 ft | 262 kts | 20° |
| 2026-05-05 12:43 | 45.74913 | 8.78744 | 8046 ft | 251 kts | 20° |
| 2026-05-05 12:43 | 45.76538 | 8.79545 | 7802 ft | 244 kts | 20° |
| 2026-05-05 12:43 | 45.78119 | 8.80323 | 7547 ft | 236 kts | 20° |
| 2026-05-05 12:43 | 45.79649 | 8.81074 | 7307 ft | 227 kts | 21° |
| 2026-05-05 12:44 | 45.81118 | 8.81795 | 7061 ft | 219 kts | 21° |
| 2026-05-05 12:44 | 45.82538 | 8.82491 | 6801 ft | 212 kts | 21° |
| 2026-05-05 12:44 | 45.83911 | 8.83164 | 6561 ft | 205 kts | 22° |
| 2026-05-05 12:44 | 45.85236 | 8.83813 | 6348 ft | 198 kts | 22° |
| 2026-05-05 12:45 | 45.86524 | 8.84443 | 6143 ft | 192 kts | 22° |
| 2026-05-05 12:45 | 45.87779 | 8.85050 | 5812 ft | 190 kts | 20° |
| 2026-05-05 12:45 | 45.89023 | 8.85597 | 5505 ft | 189 kts | 20° |
| 2026-05-05 12:45 | 45.90276 | 8.86139 | 5141 ft | 182 kts | 19° |
| 2026-05-05 12:46 | 45.91479 | 8.86679 | 4751 ft | 178 kts | 21° |
| 2026-05-05 12:46 | 45.92567 | 8.87209 | 4627 ft | 156 kts | 23° |
| 2026-05-05 12:46 | 45.93544 | 8.87774 | 4149 ft | 155 kts | 21° |
| 2026-05-05 12:46 | 45.94526 | 8.88257 | 3815 ft | 144 kts | 20° |
| 2026-05-05 12:47 | 45.95487 | 8.88718 | 3243 ft | 148 kts | 20° |
| 2026-05-05 12:47 | 45.96468 | 8.89206 | 2388 ft | 149 kts | 19° |
| 2026-05-05 12:47 | 45.97588 | 8.89744 | 1612 ft | 164 kts | 16° |
| 2026-05-05 12:47 | 45.98613 | 8.90207 | 1340 ft | 145 kts | 17° |
| 2026-05-05 12:48 | 45.99534 | 8.90620 | 1028 ft | 133 kts | 19° |
| 2026-05-05 12:48 | 46.00335 | 8.91014 | 927 ft | 86 kts | 19° |
| 2026-05-05 12:48 | 46.00575 | 8.91132 | 924 ft | 6 kts | 19° |
| 2026-05-05 12:48 | 46.00609 | 8.91161 | 927 ft | 5 kts | 16° |
| 2026-05-05 12:49 | 46.00614 | 8.91157 | 925 ft | 1 kts | 321° |
| 2026-05-05 12:49 | 46.00611 | 8.91149 | 924 ft | 1 kts | 237° |
| 2026-05-05 12:49 | 46.00578 | 8.91132 | 924 ft | 10 kts | 195° |
| 2026-05-05 12:49 | 46.00505 | 8.91097 | 924 ft | 11 kts | 199° |
| 2026-05-05 12:50 | 46.00465 | 8.91077 | 928 ft | 3 kts | 199° |
| 2026-05-05 12:50 | 46.00449 | 8.91054 | 924 ft | 4 kts | 247° |
| 2026-05-05 12:50 | 46.00453 | 8.91013 | 923 ft | 4 kts | 286° |
| 2026-05-05 12:50 | 46.00456 | 8.90972 | 923 ft | 4 kts | 249° |
| 2026-05-05 12:51 | 46.00432 | 8.90950 | 925 ft | 4 kts | 201° |
| 2026-05-05 12:51 | 46.00402 | 8.90933 | 926 ft | 6 kts | 198° |
| 2026-05-05 12:51 | 46.00354 | 8.90911 | 923 ft | 8 kts | 198° |
| 2026-05-05 12:51 | 46.00304 | 8.90886 | 923 ft | 8 kts | 199° |
| 2026-05-05 12:52 | 46.00254 | 8.90862 | 923 ft | 7 kts | 198° |
| 2026-05-05 12:52 | 46.00208 | 8.90835 | 925 ft | 7 kts | 226° |
| 2026-05-05 12:52 | 46.00209 | 8.90803 | 925 ft | 0 kts | 294° |
| 2026-05-05 12:52 | 46.00212 | 8.90793 | 923 ft | 2 kts | 294° |
| 2026-05-05 12:53 | 46.00209 | 8.90770 | 925 ft | 2 kts | 239° |
| 2026-05-05 12:53 | 46.00194 | 8.90758 | 925 ft | 2 kts | 200° |
| 2026-05-05 12:53 | 46.00187 | 8.90754 | 924 ft | 0 kts | 200° |